WEATHER DATA

YESTERDAY
Time Temp. Dewp. Hum. Wind dir Wind speed Wind gust Bar. 1h Prec. 24h Prec.
00:04 15.5 15.5 100 90 0.3 0.8 1015.2 0.0000 0.0000
00:14 15.4 15.4 100 135 0.3 1.1 1015.1 0.0000 0.0000
00:24 15.2 15.2 100 180 0.3 1.1 1015.2 0.0000 0.0000
00:34 15.1 15.1 100 135 0.3 1.1 1015.2 0.0000 0.0000
00:45 14.8 14.8 100 168 0.3 1.4 1015.2 0.0000 0.0000
00:54 14.7 14.7 100 135 0.3 1.1 1015.2 0.0000 0.0000
01:04 14.5 14.5 100 150 0.3 0.8 1015.1 0.0000 0.0000
01:15 14.3 14.3 100 90 0.3 1.1 1015 0.0000 0.0000
01:25 14.2 14.2 100 186 0.3 0.8 1015.1 0.0000 0.0000
01:34 14.1 14.1 100 153 0.3 1.1 1015.1 0.0000 0.0000
01:44 13.9 13.9 100 153 0.3 0.8 1015 0.0000 0.0000
01:55 13.7 13.7 100 165 0.3 1.1 1014.9 0.0000 0.0000
02:05 13.6 13.6 100 168 0.3 0.8 1014.7 0.0000 0.0000
02:14 13.5 13.5 100 158 0.3 0.8 1014.6 0.0000 0.0000
02:25 13.4 13.4 100 135 0.3 1.1 1014.5 0.0000 0.0000
02:35 13.3 13.3 100 176 0.3 1.1 1014.5 0.0000 0.0000
02:45 13.1 13.1 100 184 0.3 0.8 1014.5 0.0000 0.0000
02:55 13 13 100 171 0.3 1.1 1014.4 0.0000 0.0000
03:05 12.9 12.9 100 180 0.3 1.1 1014.3 0.0000 0.0000
03:15 12.7 12.7 100 165 0.3 0.8 1014.3 0.0000 0.0000
03:25 12.6 12.6 100 172 0.3 1.1 1014.4 0.0000 0.0000
03:35 12.5 12.5 100 161 0.3 1.1 1014.4 0.0000 0.0000
03:45 12.4 12.4 100 150 0.3 0.8 1014.4 0.0000 0.0000
03:55 12.3 12.3 100 168 0.3 0.8 1014.4 0.0000 0.0000
04:05 12.2 12.2 100 167 0.3 1.1 1014.4 0.0000 0.0000
04:15 12.1 12.1 100 156 0.3 1.1 1014.4 0.0000 0.0000
04:25 12 12 100 188 0.3 0.8 1014.3 0.0000 0.0000
04:35 11.9 11.9 100 183 0.3 0.8 1014.4 0.0000 0.0000
04:46 11.8 11.8 100 168 0.3 1.1 1014.3 0.0000 0.0000
04:55 11.8 11.8 100 169 0.3 0.8 1014.2 0.0000 0.0000
05:05 11.7 11.7 100 161 0.3 0.8 1014.2 0.0000 0.0000
05:16 11.7 11.7 100 158 0.3 1.1 1014.2 0.0000 0.0000
05:26 11.7 11.7 100 164 0.3 1.1 1014.2 0.0000 0.0000
05:35 11.6 11.6 100 186 0.3 0.8 1014.1 0.0000 0.0000
05:45 11.5 11.5 100 174 0.3 1.1 1014.1 0.0000 0.0000
05:56 11.5 11.5 100 167 0.3 1.1 1014 0.0000 0.0000
06:06 11.4 11.4 100 158 0.8 1.4 1013.9 0.0000 0.0000
06:15 11.4 11.4 100 160 0.3 1.1 1013.9 0.0000 0.0000
06:26 11.3 11.3 100 164 0.3 1.1 1013.9 0.0000 0.0000
06:36 11.4 11.4 100 145 0.8 1.1 1013.8 0.0000 0.0000
06:45 11.5 11.5 100 154 0.3 1.1 1013.7 0.0000 0.0000
06:55 11.6 11.6 100 158 0.8 1.1 1013.7 0.0000 0.0000
07:06 11.7 11.7 100 151 0.3 1.1 1013.7 0.0000 0.0000
07:16 11.8 11.8 100 138 0.8 1.1 1013.5 0.0000 0.0000
07:25 12 12 100 144 0.8 1.1 1013.7 0.0000 0.0000
07:36 12.1 12.1 100 146 0.8 1.1 1013.5 0.0000 0.0000
07:46 12.3 12.3 100 146 0.3 1.1 1013.7 0.0000 0.0000
07:56 12.6 12.6 100 135 1.1 1.4 1013.5 0.0000 0.0000
08:06 12.9 12.9 100 117 0.8 1.4 1013.5 0.0000 0.0000
08:16 13.1 13.1 100 118 0.8 1.1 1013.5 0.0000 0.0000
08:26 13.4 13.4 100 120 1.1 1.7 1013.5 0.0000 0.0000
08:36 13.8 13.8 100 135 0.8 1.4 1013.5 0.0000 0.0000
08:46 14.1 14.1 100 123 0.8 1.1 1013.5 0.0000 0.0000
08:56 14.7 14.7 100 167 0.8 1.1 1013.5 0.0000 0.0000
09:06 15.1 15.1 100 154 0.8 1.4 1013.5 0.0000 0.0000
09:16 15.5 15.5 100 183 0.3 0.8 1013.5 0.0000 0.0000
09:27 16.1 16.1 100 141 0.8 1.4 1013.3 0.0000 0.0000
09:37 17.2 17.2 100 117 0.8 1.4 1013.4 0.0000 0.0000
09:47 17.7 17.7 100 123 0.8 1.4 1013.4 0.0000 0.0000
09:57 18.6 18.6 100 139 0.8 2.2 1013.4 0.0000 0.0000
10:07 19.7 19 96 128 1.1 2.5 1013.3 0.0000 0.0000
10:17 20.8 19.5 92 112 0.8 1.7 1013.3 0.0000 0.0000
10:27 21 19.8 93 113 1.1 2.2 1013.3 0.0000 0.0000
10:37 21.9 20 89 138 0.8 1.7 1013.2 0.0000 0.0000
10:47 22.7 20.2 86 219 1.1 2.5 1013.1 0.0000 0.0000
11:08 23.2 20.5 85 270 0.8 2.5 1013 0.0000 0.0000
11:17 23.7 21 85 139 0.8 2.2 1013 0.0000 0.0000
11:27 23.8 20.3 81 225 0.3 1.7 1013 0.0000 0.0000
11:37 24.1 21 83 149 0.8 2.2 1012.9 0.0000 0.0000
11:48 24.7 20.4 77 135 1.1 2.5 1012.8 0.0000 0.0000
11:57 24.8 18.5 68 155 0.8 2.2 1013 0.0000 0.0000
12:07 25 18.2 66 206 0.8 3.3 1012.9 0.0000 0.0000
12:18 25 17.5 63 173 0.8 2.5 1012.8 0.0000 0.0000
12:28 25.2 18.2 65 180 0.8 1.7 1012.8 0.0000 0.0000
12:37 25.5 16.9 59 299 0.8 2.2 1012.8 0.0000 0.0000
12:48 25.7 16.8 58 278 1.1 2.2 1012.8 0.0000 0.0000
12:58 25.8 16.6 57 126 1.1 2.5 1012.7 0.0000 0.0000
13:08 26.1 16.1 54 112 1.1 3.3 1012.7 0.0000 0.0000
13:18 26.4 16.3 54 90 1.1 3.3 1012.5 0.0000 0.0000
13:28 26.7 16 52 115 0.8 3.3 1012.4 0.0000 0.0000
13:38 26.9 16.2 52 105 1.1 2.8 1012.3 0.0000 0.0000
13:48 26.9 15 48 90 0.8 2.8 1012.2 0.0000 0.0000
13:58 26.9 15.6 50 90 0.8 2.2 1012.1 0.0000 0.0000
14:08 26.9 15.6 50 90 1.1 3.9 1012 0.0000 0.0000
14:18 27.2 16.2 51 180 0.8 1.7 1011.9 0.0000 0.0000
14:28 27.3 15.7 49 90 0.8 1.7 1011.8 0.0000 0.0000
14:39 27.1 15.2 48 80 0.8 1.7 1011.7 0.0000 0.0000
14:48 27.3 15.7 49 281 0.8 2.8 1011.6 0.0000 0.0000
14:58 27.3 15.7 49 249 0.8 2.2 1011.6 0.0000 0.0000
15:19 27.6 15.3 47 135 0.8 2.5 1011.4 0.0000 0.0000
15:28 27.4 16.1 50 138 1.1 2.5 1011.4 0.0000 0.0000
15:38 27.3 15.3 48 90 0.3 1.7 1011.3 0.0000 0.0000
15:49 27.1 15.5 49 71 0.8 1.7 1011.2 0.0000 0.0000
15:59 27.1 14.5 46 121 1.1 2.5 1011.1 0.0000 0.0000
16:08 27 14.4 46 90 0.8 2.5 1011 0.0000 0.0000
16:19 27.1 15.2 48 124 1.1 2.8 1010.9 0.0000 0.0000
16:29 27 15.1 48 135 0.8 2.2 1010.8 0.0000 0.0000
16:39 26.9 15.6 50 281 1.1 3.3 1010.7 0.0000 0.0000
16:48 26.9 15.6 50 288 1.1 2.8 1010.6 0.0000 0.0000
16:59 26.9 15.9 51 260 1.4 3.9 1010.5 0.0000 0.0000
17:09 26.8 15.8 51 261 1.1 2.5 1010.4 0.0000 0.0000
17:19 26.6 15.6 51 270 0.8 1.7 1010.3 0.0000 0.0000
17:30 26.6 15.6 51 270 1.1 2.5 1010.3 0.0000 0.0000
17:39 26.4 15.1 50 315 0.8 2.2 1010.2 0.0000 0.0000
17:49 26.5 15.2 50 288 1.1 2.2 1010.2 0.0000 0.0000
17:59 26.6 15.9 52 206 0.3 1.4 1010.1 0.0000 0.0000
18:10 26.7 15.4 50 270 1.1 2.8 1010.1 0.0000 0.0000
18:19 26.3 15.4 51 345 0.8 1.4 1010.1 0.0000 0.0000
18:29 26 15.7 53 299 1.1 2.8 1010 0.0000 0.0000
18:40 25.7 15.4 53 342 0.8 1.7 1009.9 0.0000 0.0000
18:50 25.5 15.5 54 311 0.8 2.5 1009.9 0.0000 0.0000
19:00 25.2 15.2 54 270 0.8 2.8 1009.9 0.0000 0.0000
19:09 25 15.1 54 345 0.8 2.2 1009.8 0.0000 0.0000
19:20 24.7 14.5 53 8 0.3 1.1 1009.6 0.0000 0.0000
19:30 24.5 15.2 56 12 0.3 1.1 1009.7 0.0000 0.0000
19:40 24.3 15.2 57 90 0.3 1.1 1009.7 0.0000 0.0000
19:50 24 15.2 58 90 0.3 1.1 1009.6 0.0000 0.0000
20:00 23.9 14.9 57 90 0.3 1.1 1009.6 0.0000 0.0000
20:10 23.7 15 58 210 0.3 1.4 1009.7 0.0000 0.0000
20:20 23.5 14.5 57 59 0.3 1.1 1009.8 0.0000 0.0000
20:31 23.4 14.7 58 341 0.3 1.1 1010 0.0000 0.0000
20:41 23.3 14.3 57 39 0.3 1.4 1010.1 0.0000 0.0000
20:50 23.1 14.7 59 270 0.8 1.4 1010 0.0000 0.0000
21:01 22.8 14.4 59 270 0.8 2.2 1010.1 0.0000 0.0000
21:11 22.6 13.9 58 315 0.3 1.1 1010.2 0.0000 0.0000
21:21 22.5 13.8 58 284 0.8 2.5 1010.2 0.0000 0.0000
21:30 22.4 13.5 57 27 0.8 2.5 1010.3 0.0000 0.0000
21:41 22.1 14 60 356 0.8 1.7 1010.3 0.0000 0.0000
21:51 21.8 13.4 59 354 0.3 1.1 1010.4 0.0000 0.0000
22:01 21.5 13.4 60 90 0.3 1.4 1010.3 0.0000 0.0000
22:11 21.4 13.6 61 0.3 1.1 1010.4 0.0000 0.0000
22:21 21.2 13.9 63 90 0.3 1.1 1010.4 0.0000 0.0000
22:31 21.1 13.8 63 90 0.3 1.4 1010.3 0.0000 0.0000
22:41 20.9 13.6 63 90 0.3 1.1 1010.1 0.0000 0.0000
22:52 20.7 14.1 66 325 0.3 1.1 1010.2 0.0000 0.0000
23:02 20.5 14.2 67 26 0.3 1.4 1010.2 0.0000 0.0000
23:11 20.5 13.9 66 344 0.8 1.4 1010.2 0.0000 0.0000
23:22 20.3 14 67 319 0.8 1.1 1010.3 0.0000 0.0000
23:42 20.1 14.2 69 13 0.8 1.7 1010 0.0000 0.0000
23:51 20 14.1 69 20 0.3 1.4 1010 0.0000 0.0000

DAY STATISTIC

2018-07-20
TEMPERATURE
AVERAGE
19.7
HIGH
27.6
15:19
LOW
11.3
06:26
PRESSURE
AVERAGE
1012.4
HIGH
1015.2
00:04
LOW
1009.6
19:20
DEWPOINT
AVERAGE
14.7
HIGH
21.0
11:17
LOW
11.3
06:26
HUMIDITY
AVERAGE
77
HIGH
100
00:04
LOW
46
15:59
WIND SPEED
AVERAGE
0.6
HIGH
1.4
16:59
WIND GUST
AVERAGE
1.6
HIGH
3.9
14:08
WIND DIRECTION
PREVAILING
SE
29.3%
N
7.9
NE
2.9
E
15.0
SE
29.3
S
24.3
SW
3.6
W
11.4
NW
5.0
PRECIPITATION
RAIN HOUR
0.0
RAIN DAY
0.0
TEMPERATURE (°C)
LOW
11.3
HIGH
27.6
AVERAGE
19.7
PRESSURE (hpa)
LOW
1009.6
HIGH
1015.2
AVERAGE
1012.4
DEVICE